Salem, OR

12:31 AM PST on February 01, 2015 (GMT -0800)
Center & Cordon NE | Change Station
CLOSE
Current Station
Personal Weather Station
Location: Salem, OR
Elevation: 210 ft
Nearby Weather Stations

Elev 210 ft 44.94 °N, 122.96 °W | Updated 4 seconds ago

Partly Cloudy
Partly Cloudy
36.5 °F
Feels Like 36 °F
N
0.4
Wind Variable Wind from SW
Gusts 1.2 mph

Today
High -- | Low -- °F
--% Chance of Precip.
Yesterday
High -- | Low -- °F
Precip. -- in
7:31 AM 5:19 PM
Waxing Gibbous, 94% visible
Pressure 30.12 in
Visibility 2.0 miles
Clouds Few 300 ft
Windchill 36 °F
Dew Point 36 °F
Humidity 97%
Rainfall 0.00 in
Snow Depth Not available.
UV 0 out of 12
Pollen 3.60 out of 12
Air Quality Not available.
Flu Activity Not available.
SPECI KSLE 010817Z AUTO 15005KT 2SM R31/3500VP6000FT BR FEW003 03/02 A3012 RMK AO2 T00330022

More Conditions Fewer Conditions

Pressure 30.12 in
Visibility 2.0 miles
Clouds Few 300 ft
Windchill 36 °F
Dew Point 36 °F
Humidity 97%
Rainfall 0.00 in
Snow Depth Not available.
UV 0 out of 12
Pollen 3.60 out of 12
Air Quality Not available.
Flu Activity Not available.
SPECI KSLE 010817Z AUTO 15005KT 2SM R31/3500VP6000FT BR FEW003 03/02 A3012 RMK AO2 T00330022

More Conditions Fewer Conditions

10-Day Weather Forecast

Almanac

Astronomy

Feb. 01, 2015 Rise Set
Actual Time
Civil Twilight
Nautical Twilight
Astronomical Twilight
Moon
Length of Visible Light
Length of Day
Tomorrow will be .
, % of the Moon is Illuminated

Today's Extremes

State Highs State Lows

Community

WunderPhotos

Upload Photos

1,792,335 photos uploaded!

WunderBlogs® & News

Nearby

Air Quality

  Air Quality AQ Index Pollutant
Not available.

Snow Depth

Station Depth Elevation

Earthquake Activity

City Distance Mag. Time & Date
Minimum magnitude displayed is 2.5.

Coastal Water Temperatures

Place Temperature

Nearby Weather Stations